createdAt,value
2023-01-17T00:00:50.227Z,98438.28
2023-01-17T00:03:17.926Z,98438.31
2023-01-17T00:06:02.931Z,98442.56
2023-01-17T00:08:55.181Z,98445.25
2023-01-17T00:11:21.705Z,98464.09
2023-01-17T00:13:48.236Z,98458.75
2023-01-17T00:16:14.796Z,98461.06
2023-01-17T00:19:01.351Z,98461.47
2023-01-17T00:21:46.513Z,98462.63
2023-01-17T00:24:31.624Z,98473.34
2023-01-17T00:27:12.096Z,98479.88
2023-01-17T00:29:38.633Z,98478.38
2023-01-17T00:32:05.196Z,98487.19
2023-01-17T00:34:31.656Z,98488.38
2023-01-17T00:36:58.220Z,98479.53
2023-01-17T00:39:24.716Z,98492.63
2023-01-17T00:41:51.152Z,98502.25
2023-01-17T00:44:35.854Z,98509.94
2023-01-17T00:47:20.966Z,98522.25
2023-01-17T00:50:05.957Z,98530.00
2023-01-17T00:52:51.176Z,98540.00
2023-01-17T00:55:36.180Z,98543.47
2023-01-17T00:58:28.041Z,98545.41
2023-01-17T01:01:13.579Z,98541.56
2023-01-17T01:03:58.375Z,98547.31
2023-01-17T01:06:43.133Z,98536.97
2023-01-17T01:09:28.286Z,98535.03
2023-01-17T01:12:13.357Z,98528.88
2023-01-17T01:14:58.421Z,98539.25
2023-01-17T01:17:43.415Z,98551.16
2023-01-17T01:20:29.473Z,98556.13
2023-01-17T01:23:14.221Z,98564.94
2023-01-17T01:25:59.003Z,98569.91
2023-01-17T01:28:44.936Z,98567.63
2023-01-17T01:31:30.089Z,98570.69
2023-01-17T01:33:56.598Z,98576.44
2023-01-17T01:36:23.040Z,98572.25
2023-01-17T01:38:50.264Z,98569.16
2023-01-17T01:41:16.813Z,98585.66
2023-01-17T01:43:49.288Z,98586.81
2023-01-17T01:46:23.329Z,98581.44
2023-01-17T01:48:57.589Z,98589.91
2023-01-17T01:51:30.974Z,98584.91
2023-01-17T01:54:07.439Z,98589.13
2023-01-17T01:56:34.304Z,98596.03
2023-01-17T01:59:04.288Z,98603.31
2023-01-17T02:01:31.704Z,98608.69
2023-01-17T02:03:58.735Z,98609.84
2023-01-17T02:06:38.682Z,98609.84
2023-01-17T02:09:09.605Z,98622.91
2023-01-17T02:11:38.726Z,98637.06
2023-01-17T02:14:05.668Z,98643.97
2023-01-17T02:16:38.772Z,98654.31
2023-01-17T02:19:20.809Z,98663.91
2023-01-17T02:22:04.308Z,98658.50
2023-01-17T02:24:51.971Z,98661.97
2023-01-17T02:27:26.007Z,98675.78
2023-01-17T02:30:27.597Z,98671.94
2023-01-17T02:33:05.826Z,98662.75
2023-01-17T02:35:49.051Z,98665.81
2023-01-17T02:38:20.890Z,98668.13
2023-01-17T02:40:55.170Z,98665.03
2023-01-17T02:43:24.404Z,98668.47
2023-01-17T02:45:51.115Z,98676.56
2023-01-17T02:48:22.718Z,98671.19
2023-01-17T02:51:06.955Z,98684.22
2023-01-17T02:53:52.903Z,98684.22
2023-01-17T02:56:40.262Z,98676.53
2023-01-17T02:59:18.345Z,98679.59
2023-01-17T03:02:05.248Z,98691.88
2023-01-17T03:04:41.857Z,98682.69
2023-01-17T03:07:16.360Z,98681.91
2023-01-17T03:09:45.882Z,98693.00
2023-01-17T03:12:13.215Z,98685.72
2023-01-17T03:14:39.707Z,98688.03
2023-01-17T03:17:06.261Z,98691.06
2023-01-17T03:19:32.709Z,98692.59
2023-01-17T03:22:00.195Z,98695.28
2023-01-17T03:24:26.693Z,98697.19
2023-01-17T03:26:53.184Z,98698.38
2023-01-17T03:29:19.693Z,98707.56
2023-01-17T03:31:46.787Z,98716.00
2023-01-17T03:34:13.464Z,98711.81
2023-01-17T03:36:39.937Z,98714.09
2023-01-17T03:39:06.737Z,98721.38
2023-01-17T03:41:33.288Z,98719.88
2023-01-17T03:44:00.866Z,98723.31
2023-01-17T03:46:28.681Z,98721.38
2023-01-17T03:48:55.481Z,98725.22
2023-01-17T03:51:23.003Z,98723.28
2023-01-17T03:53:50.656Z,98729.44
2023-01-17T03:56:18.144Z,98729.78
2023-01-17T03:58:44.938Z,98723.66
2023-01-17T04:01:12.195Z,98727.84
2023-01-17T04:03:40.123Z,98729.00
2023-01-17T04:06:07.964Z,98728.63
2023-01-17T04:08:34.415Z,98729.38
2023-01-17T04:11:01.954Z,98729.38
2023-01-17T04:13:28.410Z,98738.53
2023-01-17T04:15:55.965Z,98746.19
2023-01-17T04:18:24.195Z,98748.06
2023-01-17T04:20:51.590Z,98757.22
2023-01-17T04:23:18.423Z,98756.78
2023-01-17T04:25:45.002Z,98747.97
2023-01-17T04:28:13.043Z,98754.88
2023-01-17T04:30:39.654Z,98744.16
2023-01-17T04:33:06.254Z,98750.28
2023-01-17T04:35:33.593Z,98744.97
2023-01-17T04:38:00.725Z,98746.13
2023-01-17T04:40:27.496Z,98739.97
2023-01-17T04:42:54.299Z,98733.47
2023-01-17T04:45:22.266Z,98730.41
2023-01-17T04:47:48.861Z,98729.63
2023-01-17T04:50:15.673Z,98730.41
2023-01-17T04:52:43.535Z,98734.22
2023-01-17T04:55:11.035Z,98740.75
2023-01-17T04:57:37.521Z,98726.16
2023-01-17T05:00:04.900Z,98738.03
2023-01-17T05:02:32.717Z,98734.22
2023-01-17T05:04:59.167Z,98739.56
2023-01-17T05:07:25.814Z,98742.25
2023-01-17T05:09:52.318Z,98739.19
2023-01-17T05:12:18.786Z,98738.03
2023-01-17T05:14:45.268Z,98743.78
2023-01-17T05:17:11.800Z,98739.56
2023-01-17T05:19:38.615Z,98749.53
2023-01-17T05:22:15.088Z,98754.50
2023-01-17T05:24:43.721Z,98754.06
2023-01-17T05:27:11.227Z,98755.59
2023-01-17T05:29:39.065Z,98753.66
2023-01-17T05:32:07.262Z,98761.72
2023-01-17T05:34:34.240Z,98758.63
2023-01-17T05:37:00.782Z,98757.88
2023-01-17T05:39:27.242Z,98763.59
2023-01-17T05:41:53.913Z,98763.59
2023-01-17T05:44:21.350Z,98762.03
2023-01-17T05:46:47.851Z,98775.44
2023-01-17T05:49:14.333Z,98765.84
2023-01-17T05:51:40.787Z,98774.63
2023-01-17T05:54:07.625Z,98781.50
2023-01-17T05:56:34.319Z,98786.47
2023-01-17T05:59:00.894Z,98796.03
2023-01-17T06:01:27.788Z,98792.91
2023-01-17T06:03:54.238Z,98788.34
2023-01-17T06:06:20.821Z,98792.19
2023-01-17T06:08:48.276Z,98794.06
2023-01-17T06:11:14.845Z,98795.22
2023-01-17T06:13:41.379Z,98801.31
2023-01-17T06:16:08.319Z,98805.19
2023-01-17T06:18:34.835Z,98805.19
2023-01-17T06:21:01.499Z,98810.16
2023-01-17T06:23:28.431Z,98811.34
2023-01-17T06:25:54.971Z,98798.34
2023-01-17T06:28:22.929Z,98812.97
2023-01-17T06:30:50.121Z,98809.53
2023-01-17T06:33:16.770Z,98801.53
2023-01-17T06:35:49.270Z,98802.69
2023-01-17T06:38:15.820Z,98801.59
2023-01-17T06:40:42.386Z,98804.28
2023-01-17T06:43:09.114Z,98802.31
2023-01-17T06:45:36.118Z,98798.50
2023-01-17T06:48:05.124Z,98798.84
2023-01-17T06:50:32.738Z,98808.41
2023-01-17T06:53:01.935Z,98807.25
2023-01-17T06:55:30.128Z,98808.78
2023-01-17T06:57:59.395Z,98816.44
2023-01-17T07:00:27.476Z,98814.88
2023-01-17T07:02:54.512Z,98819.88
2023-01-17T07:05:23.981Z,98819.47
2023-01-17T07:07:50.487Z,98818.31
2023-01-17T07:10:17.052Z,98816.75
2023-01-17T07:12:43.497Z,98823.28
2023-01-17T07:15:10.988Z,98819.47
2023-01-17T07:17:41.334Z,98822.56
2023-01-17T07:20:08.603Z,98824.06
2023-01-17T07:22:37.047Z,98822.91
2023-01-17T07:25:03.853Z,98826.00
2023-01-17T07:27:30.754Z,98822.91
2023-01-17T07:29:57.901Z,98825.19
2023-01-17T07:32:26.750Z,98823.63
2023-01-17T07:34:54.293Z,98825.91
2023-01-17T07:37:21.022Z,98831.59
2023-01-17T07:39:47.529Z,98828.50
2023-01-17T07:42:14.006Z,98830.00
2023-01-17T07:44:43.914Z,98834.19
2023-01-17T07:47:10.965Z,98834.16
2023-01-17T07:49:37.669Z,98839.56
2023-01-17T07:52:07.152Z,98828.84
2023-01-17T07:54:33.857Z,98837.66
2023-01-17T07:57:00.883Z,98837.66
2023-01-17T07:59:27.387Z,98837.59
2023-01-17T08:01:53.971Z,98842.19
2023-01-17T08:04:20.511Z,98837.19
2023-01-17T08:06:48.779Z,98846.00
2023-01-17T08:09:15.324Z,98838.34
2023-01-17T08:11:41.824Z,98843.31
2023-01-17T08:14:08.405Z,98847.09
2023-01-17T08:16:34.961Z,98849.03
2023-01-17T08:19:01.467Z,98849.38
2023-01-17T08:21:28.105Z,98847.09
2023-01-17T08:23:54.651Z,98847.50
2023-01-17T08:26:22.329Z,98858.22
2023-01-17T08:28:55.829Z,98859.75
2023-01-17T08:31:22.757Z,98857.41
2023-01-17T08:33:49.288Z,98855.53
2023-01-17T08:36:15.822Z,98862.00
2023-01-17T08:38:42.340Z,98865.44
2023-01-17T08:41:08.880Z,98862.41
2023-01-17T08:43:35.417Z,98863.59
2023-01-17T08:46:02.044Z,98859.38
2023-01-17T08:48:28.682Z,98860.50
2023-01-17T08:50:55.269Z,98874.63
2023-01-17T08:53:23.206Z,98877.69
2023-01-17T08:55:57.915Z,98873.13
2023-01-17T08:58:24.453Z,98875.00
2023-01-17T09:00:51.073Z,98880.75
2023-01-17T09:03:17.684Z,98879.94
2023-01-17T09:05:44.339Z,98880.75
2023-01-17T09:08:11.239Z,98886.50
2023-01-17T09:10:37.771Z,98887.22
2023-01-17T09:13:06.950Z,98887.22
2023-01-17T09:15:33.576Z,98889.13
2023-01-17T09:18:01.443Z,98889.53
2023-01-17T09:20:30.157Z,98897.97
2023-01-17T09:22:57.417Z,98891.47
2023-01-17T09:25:23.957Z,98902.59
2023-01-17T09:27:50.502Z,98906.03
2023-01-17T09:30:17.454Z,98901.09
2023-01-17T09:32:43.999Z,98902.25
2023-01-17T09:35:10.657Z,98898.06
2023-01-17T09:37:37.206Z,98904.97
2023-01-17T09:40:04.353Z,98906.53
2023-01-17T09:42:38.317Z,98908.06
2023-01-17T09:45:09.994Z,98907.72
2023-01-17T09:47:45.275Z,98912.78
2023-01-17T09:50:14.455Z,98918.56
2023-01-17T09:52:41.284Z,98923.91
2023-01-17T09:55:14.360Z,98926.63
2023-01-17T09:57:58.987Z,98924.03
2023-01-17T10:00:42.318Z,98931.34
2023-01-17T10:03:18.069Z,98930.59
2023-01-17T10:06:09.119Z,98939.03
2023-01-17T10:09:03.860Z,98939.91
2023-01-17T10:11:30.287Z,98934.19
2023-01-17T10:14:16.465Z,98936.13
2023-01-17T10:16:55.009Z,98925.84
2023-01-17T10:19:32.985Z,98935.00
2023-01-17T10:22:10.945Z,98933.47
2023-01-17T10:24:53.433Z,98930.03
2023-01-17T10:27:25.812Z,98935.81
2023-01-17T10:29:54.055Z,98928.56
2023-01-17T10:32:26.326Z,98934.31
2023-01-17T10:34:53.478Z,98931.31
2023-01-17T10:37:31.220Z,98928.66
2023-01-17T10:40:14.024Z,98937.47
2023-01-17T10:42:56.222Z,98938.97
2023-01-17T10:45:29.082Z,98935.88
2023-01-17T10:48:12.931Z,98937.81
2023-01-17T10:50:53.795Z,98938.56
2023-01-17T10:53:55.791Z,98932.84
2023-01-17T10:56:26.270Z,98941.31
2023-01-17T10:59:21.938Z,98941.31
2023-01-17T11:01:50.989Z,98940.19
2023-01-17T11:04:21.816Z,98945.94
2023-01-17T11:07:10.617Z,98945.63
2023-01-17T11:09:41.216Z,98947.94
2023-01-17T11:12:17.824Z,98940.66
2023-01-17T11:14:58.761Z,98941.44
2023-01-17T11:17:27.679Z,98942.22
2023-01-17T11:20:06.144Z,98946.84
2023-01-17T11:22:35.946Z,98945.34
2023-01-17T11:25:04.053Z,98941.09
2023-01-17T11:27:35.173Z,98939.16
2023-01-17T11:43:16.667Z,98940.75
2023-01-17T11:46:26.302Z,98932.72
2023-01-17T12:45:24.565Z,98896.91
2023-01-17T12:48:19.759Z,98900.75
2023-01-17T12:52:22.833Z,98893.09
2023-01-17T12:54:39.691Z,98899.22
2023-01-17T13:01:18.971Z,98899.25
2023-01-17T13:03:46.533Z,98905.38
2023-01-17T13:07:19.877Z,98900.78
2023-01-17T13:10:25.752Z,98909.63
2023-01-17T13:19:30.340Z,98917.69
2023-01-17T13:22:00.564Z,98905.78
2023-01-17T13:24:47.156Z,98905.00
2023-01-17T13:27:41.997Z,98911.16
2023-01-17T13:30:17.001Z,98905.78
2023-01-17T13:33:09.214Z,98910.78
2023-01-17T14:37:40.049Z,98931.50
2023-01-17T14:43:02.284Z,98941.50
2023-01-17T14:45:38.397Z,98938.00
2023-01-17T14:49:12.745Z,98931.13
2023-01-17T14:55:17.739Z,98938.03
2023-01-17T14:58:05.967Z,98938.00
2023-01-17T15:18:28.433Z,98955.44
2023-01-17T15:21:22.967Z,98953.91
2023-01-17T15:24:17.361Z,98965.00
2023-01-17T15:26:46.745Z,98967.25
2023-01-17T15:29:43.083Z,98969.53
2023-01-17T15:32:24.275Z,98970.25
2023-01-17T15:34:53.013Z,98968.34
2023-01-17T15:37:34.868Z,98968.69
2023-01-17T15:40:08.182Z,98974.38
2023-01-17T15:42:39.155Z,98973.63
2023-01-17T15:45:09.564Z,98973.53
2023-01-17T15:47:38.664Z,98975.06
2023-01-17T15:50:27.956Z,98968.13
2023-01-17T15:52:58.794Z,98973.09
2023-01-17T15:55:33.093Z,98967.63
2023-01-17T15:58:00.225Z,98965.31
2023-01-17T16:00:38.663Z,98967.56
2023-01-17T16:03:29.441Z,98969.03
2023-01-17T16:05:57.890Z,98973.19
2023-01-17T16:08:32.788Z,98973.56
2023-01-17T16:11:07.529Z,98970.84
2023-01-17T16:13:40.365Z,98968.13
2023-01-17T16:16:11.831Z,98962.75
2023-01-17T16:18:41.574Z,98973.06
2023-01-17T16:21:19.772Z,98970.75
2023-01-17T16:23:47.497Z,98973.78
2023-01-17T16:26:14.193Z,98974.50
2023-01-17T16:28:41.775Z,98979.84
2023-01-17T16:31:10.550Z,98980.97
2023-01-17T16:33:37.333Z,98974.78
2023-01-17T16:36:05.096Z,98976.69
2023-01-17T16:38:32.294Z,98987.34
2023-01-17T16:40:58.868Z,98985.41
2023-01-17T16:43:25.382Z,98984.25
2023-01-17T16:45:54.907Z,98982.25
2023-01-17T16:48:21.929Z,98992.56
2023-01-17T16:50:52.108Z,98990.59
2023-01-17T16:53:24.870Z,98994.00
2023-01-17T16:55:54.721Z,98992.03
2023-01-17T16:58:21.400Z,98998.13
2023-01-17T17:00:48.124Z,98996.97
2023-01-17T17:03:19.732Z,99001.16
2023-01-17T17:05:55.759Z,99000.41
2023-01-17T17:08:22.767Z,99006.53
2023-01-17T17:10:49.368Z,99004.63
2023-01-17T17:13:22.001Z,99014.97
2023-01-17T17:15:49.304Z,99016.53
2023-01-17T17:18:17.835Z,99013.44
2023-01-17T17:20:45.279Z,99021.06
2023-01-17T17:23:12.475Z,99021.81
2023-01-17T17:25:39.230Z,99028.25
2023-01-17T17:28:06.435Z,99034.66
2023-01-17T17:30:33.447Z,99037.31
2023-01-17T17:33:00.002Z,99031.91
2023-01-17T17:35:26.921Z,99042.56
2023-01-17T17:37:54.522Z,99034.13
2023-01-17T17:40:21.397Z,99031.75
2023-01-17T17:42:47.945Z,99040.91
2023-01-17T17:45:14.484Z,99050.06
2023-01-17T17:47:41.080Z,99050.44
2023-01-17T17:50:08.518Z,99058.09
2023-01-17T17:52:35.109Z,99063.06
2023-01-17T17:55:01.782Z,99060.38
2023-01-17T17:57:28.317Z,99063.78
2023-01-17T17:59:57.814Z,99069.88
2023-01-17T18:02:24.411Z,99066.44
2023-01-17T18:04:51.001Z,99071.09
2023-01-17T18:07:17.494Z,99076.84
2023-01-17T18:09:44.042Z,99079.91
2023-01-17T18:12:10.687Z,99081.00
2023-01-17T18:14:37.474Z,99086.75
2023-01-17T18:17:04.112Z,99091.69
2023-01-17T18:19:31.391Z,99098.94
2023-01-17T18:21:58.196Z,99098.88
2023-01-17T18:24:25.325Z,99103.47
2023-01-17T18:26:56.887Z,99107.66
2023-01-17T18:29:24.509Z,99113.03
2023-01-17T18:31:52.460Z,99113.75
2023-01-17T18:34:23.749Z,99121.78
2023-01-17T18:36:51.359Z,99132.50
2023-01-17T18:39:21.366Z,99131.66
2023-01-17T18:41:49.072Z,99132.78
2023-01-17T18:44:16.541Z,99133.91
2023-01-17T18:46:43.375Z,99130.88
2023-01-17T18:49:11.526Z,99133.97
2023-01-17T18:51:38.273Z,99137.44
2023-01-17T18:54:07.200Z,99141.63
2023-01-17T18:56:34.751Z,99134.31
2023-01-17T18:59:02.205Z,99135.09
2023-01-17T19:01:32.974Z,99144.25
2023-01-17T19:04:02.509Z,99148.44
2023-01-17T19:06:33.380Z,99145.69
2023-01-17T19:09:00.009Z,99150.19
2023-01-17T19:11:28.140Z,99145.91
2023-01-17T19:13:55.354Z,99151.19
2023-01-17T19:28:24.542Z,99157.44
2023-01-17T19:31:30.089Z,99158.91
2023-01-17T19:37:04.352Z,99165.75
2023-01-17T19:40:09.205Z,99161.16
2023-01-17T19:42:45.770Z,99161.53
2023-01-17T19:54:27.501Z,99176.00
2023-01-17T19:57:56.173Z,99179.53
2023-01-17T20:03:17.274Z,99178.47
2023-01-17T20:05:47.008Z,99176.22
2023-01-17T20:08:15.217Z,99176.97
2023-01-17T20:10:41.963Z,99183.56
2023-01-17T20:13:10.355Z,99175.53
2023-01-17T20:15:37.117Z,99172.13
2023-01-17T20:18:05.327Z,99178.25
2023-01-17T20:20:36.899Z,99175.16
2023-01-17T20:23:06.993Z,99177.06
2023-01-17T20:25:34.051Z,99169.38
2023-01-17T20:28:02.002Z,99181.22
2023-01-17T20:30:41.823Z,99179.66
2023-01-17T20:33:14.122Z,99176.63
2023-01-17T20:35:42.660Z,99176.94
2023-01-17T20:41:05.989Z,99179.25
2023-01-17T20:43:32.643Z,99178.47
2023-01-17T20:46:00.394Z,99175.44
2023-01-17T20:48:28.136Z,99182.34
2023-01-17T20:50:55.061Z,99186.16
2023-01-17T20:53:22.076Z,99180.81
2023-01-17T20:55:55.822Z,99184.25
2023-01-17T20:58:25.045Z,99184.59
2023-01-17T21:00:54.678Z,99190.31
2023-01-17T21:03:21.822Z,99193.31
2023-01-17T21:05:49.258Z,99190.56
2023-01-17T21:08:18.532Z,99189.03
2023-01-17T21:10:49.427Z,99191.28
2023-01-17T21:13:16.527Z,99190.09
2023-01-17T21:15:47.788Z,99190.09
2023-01-17T21:21:15.202Z,99202.34
2023-01-17T21:23:42.878Z,99202.69
2023-01-17T21:26:12.224Z,99190.81
2023-01-17T21:28:40.903Z,99202.63
2023-01-17T21:31:19.597Z,99204.19
2023-01-17T21:33:47.902Z,99201.50
2023-01-17T21:36:14.968Z,99198.41
2023-01-17T21:38:42.245Z,99205.16
2023-01-17T21:41:11.292Z,99196.28
2023-01-17T21:43:38.298Z,99197.50
2023-01-17T21:46:05.670Z,99195.25
2023-01-17T21:48:33.987Z,99190.31
2023-01-17T21:51:06.316Z,99199.47
2023-01-17T21:53:35.044Z,99196.81
2023-01-17T21:56:23.836Z,99198.25
2023-01-17T21:58:54.883Z,99195.66
2023-01-17T22:01:23.761Z,99193.69
2023-01-17T22:03:53.987Z,99197.16
2023-01-17T22:06:22.271Z,99200.59
2023-01-17T22:08:49.119Z,99197.50
2023-01-17T22:11:18.471Z,99208.94
2023-01-17T22:13:45.968Z,99206.66
2023-01-17T22:16:15.120Z,99211.22
2023-01-17T22:18:43.919Z,99207.75
2023-01-17T22:21:16.407Z,99217.59
2023-01-17T22:23:48.295Z,99212.19
2023-01-17T22:26:15.937Z,99214.88
2023-01-17T22:28:43.600Z,99225.47
2023-01-17T22:31:14.436Z,99226.19
2023-01-17T22:33:43.101Z,99225.41
2023-01-17T22:36:13.715Z,99229.97
2023-01-17T22:38:43.170Z,99225.75
2023-01-17T22:41:13.201Z,99232.31
2023-01-17T22:43:42.299Z,99228.44
2023-01-17T22:46:11.972Z,99234.13
2023-01-17T22:48:39.647Z,99235.25
2023-01-17T22:51:09.223Z,99234.13
2023-01-17T22:53:41.331Z,99231.13
2023-01-17T22:56:12.164Z,99236.78
2023-01-17T22:58:42.214Z,99234.50
2023-01-17T23:01:13.020Z,99232.94
2023-01-17T23:03:41.420Z,99232.94
2023-01-17T23:06:12.187Z,99230.69
2023-01-17T23:11:43.917Z,99229.50
2023-01-17T23:14:17.725Z,99226.03
2023-01-17T23:17:11.010Z,99239.75
2023-01-17T23:19:40.993Z,99233.22
2023-01-17T23:22:16.331Z,99231.66
2023-01-17T23:24:45.422Z,99236.31
2023-01-17T23:27:41.629Z,99225.19
2023-01-17T23:30:12.744Z,99230.97
2023-01-17T23:32:43.322Z,99231.31
2023-01-17T23:35:10.162Z,99223.28
2023-01-17T23:37:55.082Z,99224.16
2023-01-17T23:40:22.159Z,99230.25
2023-01-17T23:43:07.678Z,99234.41
2023-01-17T23:45:35.898Z,99228.72
2023-01-17T23:48:04.995Z,99231.72
2023-01-17T23:50:33.035Z,99236.75
2023-01-17T23:53:00.698Z,99232.16
2023-01-17T23:55:27.231Z,99240.19
2023-01-17T23:57:54.916Z,99235.53
